LFCK/DCM METAR and TAF weather

Enter ICAO airport designator
Station Type Date Time Source
LFCK METAR 2022/06/30 14:00 UTC NOAA

LFCK 301400Z AUTO 36003KT 340V040 9999 FEW012 BKN018 OVC026 16/14 Q1018 NOSIG


Station Type Date Time Source
LFCK Decoded METAR 2022/06/30 14:00 UTC NOAA

Station name not available
Jun 30, 2022 - 10:00 AM EDT / 2022.06.30 1400 UTC
Wind: from the N (360 degrees) at 3 MPH (3 KT) (direction variable):0
Visibility: greater than 7 mile(s):0
Sky conditions: overcast
Temperature: 60 F (16 C)
Dew Point: 57 F (14 C)
Relative Humidity: 87%
Pressure (altimeter): 30.06 in. Hg (1018 hPa)
ob: LFCK 301400Z AUTO 36003KT 340V040 9999 FEW012 BKN018 OVC026 16/14 Q1018 NOSIG
cycle: 14

Station Type Date Time Source
LFCK TAF UTC NOAA

Error!

Example: see airport list